Time;durP1;ratioP1;P1;durP2;ratioP2;P2;SDS_P1;SDS_P2;PMS_P1;PMS_P2;Temp;Humidity;BMP_temperature;BMP_pressure;BME280_temperature;BME280_humidity;BME280_pressure;Samples;Min_cycle;Max_cycle;Signal;HPM_P1;HPM_P2
2022/04/26 03:36:17;;;;;;;;;;;11.90;99.90;;;;;;5093415;28;19923;-72
2022/04/26 03:38:45;;;;;;;;;;;12.00;99.90;;;;;;5093223;28;20356;-72
2022/04/26 03:41:10;;;;;;;;;;;12.00;99.90;;;;;;5093128;28;20399;-71
2022/04/26 03:43:36;;;;;;;;;;;11.90;99.90;;;;;;5093151;28;20010;-71
2022/04/26 03:46:02;;;;;;;;;;;12.00;99.90;;;;;;5093045;28;19920;-71
2022/04/26 03:48:28;;;;;;;;;;;11.80;99.90;;;;;;5092909;28;20360;-72
2022/04/26 03:50:53;;;;;;;;;;;12.00;99.90;;;;;;5092766;28;19920;-72
2022/04/26 03:53:18;;;;;;;;;;;12.00;99.90;;;;;;5092865;28;20422;-72
2022/04/26 03:55:44;;;;;;;;;;;12.00;99.90;;;;;;5074491;28;19966;-71
2022/04/26 03:58:10;;;;;;;;;;;11.90;99.90;;;;;;5092760;28;19908;-71
2022/04/26 04:00:36;;;;;;;;;;;12.00;99.90;;;;;;5092609;28;19916;-72
2022/04/26 04:03:01;;;;;;;;;;;12.00;99.90;;;;;;5092585;28;19926;-72
2022/04/26 04:05:27;;;;;;;;;;;12.00;99.90;;;;;;5092628;28;19920;-72
2022/04/26 04:07:52;;;;;;;;;;;11.90;99.90;;;;;;5074147;28;19908;-71
2022/04/26 04:10:18;;;;;;;;;;;12.00;99.90;;;;;;5092282;28;19912;-72
2022/04/26 04:12:43;;;;;;;;;;;12.00;99.90;;;;;;5092174;28;20359;-72
2022/04/26 04:15:09;;;;;;;;;;;12.00;99.90;;;;;;5092397;28;20002;-72
2022/04/26 04:17:35;;;;;;;;;;;12.10;99.90;;;;;;5092232;28;19908;-71
2022/04/26 04:20:00;;;;;;;;;;;12.00;99.90;;;;;;5074305;28;19912;-71
2022/04/26 04:22:26;;;;;;;;;;;12.00;99.90;;;;;;5073831;28;19942;-72
2022/04/26 04:24:51;;;;;;;;;;;12.00;99.90;;;;;;5073976;28;20010;-72
2022/04/26 04:27:17;;;;;;;;;;;12.10;99.90;;;;;;5073964;28;20301;-72
2022/04/26 04:29:44;;;;;;;;;;;12.10;99.90;;;;;;5092322;28;19922;-71
2022/04/26 04:32:09;;;;;;;;;;;12.00;99.90;;;;;;5092359;28;19931;-72
2022/04/26 04:34:35;;;;;;;;;;;12.00;99.90;;;;;;5092136;28;19908;-72
2022/04/26 04:37:00;;;;;;;;;;;12.00;99.90;;;;;;5092295;28;19998;-71
2022/04/26 04:39:27;;;;;;;;;;;12.10;99.90;;;;;;5092109;28;19912;-71
2022/04/26 04:41:52;;;;;;;;;;;12.10;99.90;;;;;;5073779;28;19920;-72
2022/04/26 04:44:19;;;;;;;;;;;12.10;99.90;;;;;;5091983;28;19998;-72
2022/04/26 04:46:45;;;;;;;;;;;12.10;99.90;;;;;;5073918;28;20295;-71
2022/04/26 04:49:10;;;;;;;;;;;12.10;99.90;;;;;;5091815;28;19914;-71
2022/04/26 04:51:36;;;;;;;;;;;12.20;99.90;;;;;;5091625;28;19974;-72
2022/04/26 04:54:04;;;;;;;;;;;12.20;99.90;;;;;;5091842;28;20330;-71
2022/04/26 04:56:33;;;;;;;;;;;12.20;99.90;;;;;;5092011;28;19954;-72
2022/04/26 04:58:58;;;;;;;;;;;12.20;99.90;;;;;;5091871;28;20008;-71
2022/04/26 05:01:24;;;;;;;;;;;12.20;99.90;;;;;;5091943;28;19986;-73
2022/04/26 05:03:50;;;;;;;;;;;12.30;99.90;;;;;;5091612;28;19909;-71
2022/04/26 05:06:15;;;;;;;;;;;12.20;99.90;;;;;;5073450;28;19916;-72
2022/04/26 05:08:41;;;;;;;;;;;12.30;99.90;;;;;;5091547;28;20272;-71
2022/04/26 05:11:07;;;;;;;;;;;12.30;99.90;;;;;;5091327;28;19926;-71
2022/04/26 05:13:33;;;;;;;;;;;12.30;99.90;;;;;;5073148;28;20274;-72
2022/04/26 05:15:58;;;;;;;;;;;12.40;99.90;;;;;;5073241;28;20016;-73
2022/04/26 05:18:24;;;;;;;;;;;12.40;99.90;;;;;;5091510;28;19912;-71
2022/04/26 05:20:49;;;;;;;;;;;12.40;99.90;;;;;;5091271;28;20310;-71
2022/04/26 05:25:59;;;;;;;;;;;12.30;99.90;;;;;;5091554;28;19998;-71
2022/04/26 05:28:25;;;;;;;;;;;12.30;99.90;;;;;;5073089;28;20399;-71
2022/04/26 05:30:51;;;;;;;;;;;12.30;99.90;;;;;;5091338;28;20363;-71
2022/04/26 05:33:17;;;;;;;;;;;12.30;99.90;;;;;;5091199;28;20001;-72
2022/04/26 05:35:43;;;;;;;;;;;12.20;99.90;;;;;;5091445;28;19920;-72
2022/04/26 05:38:08;;;;;;;;;;;12.20;99.90;;;;;;5091149;28;20418;-71
2022/04/26 05:40:34;;;;;;;;;;;12.30;99.90;;;;;;5091444;28;19926;-72
2022/04/26 05:42:59;;;;;;;;;;;12.30;99.90;;;;;;5091003;28;19908;-71
2022/04/26 05:45:27;;;;;;;;;;;12.30;99.90;;;;;;5091195;28;19959;-72
2022/04/26 05:47:54;;;;;;;;;;;12.40;99.90;;;;;;5091007;28;19951;-72
2022/04/26 05:50:19;;;;;;;;;;;12.40;99.90;;;;;;5091185;28;19912;-72
2022/04/26 05:52:45;;;;;;;;;;;12.40;99.90;;;;;;5072767;28;19958;-73
2022/04/26 05:55:10;;;;;;;;;;;12.40;99.90;;;;;;5091360;28;19998;-72
2022/04/26 05:57:39;;;;;;;;;;;12.40;99.90;;;;;;5091420;28;19912;-71
2022/04/26 06:00:05;;;;;;;;;;;12.40;99.90;;;;;;5072842;28;20385;-71
2022/04/26 06:02:31;;;;;;;;;;;12.40;99.90;;;;;;5091157;28;20349;-73
2022/04/26 06:04:56;;;;;;;;;;;12.50;99.90;;;;;;5091323;28;19908;-71
2022/04/26 06:07:21;;;;;;;;;;;12.90;99.90;;;;;;5091620;28;20330;-71
2022/04/26 06:09:50;;;;;;;;;;;12.40;99.90;;;;;;5090943;28;20013;-71
2022/04/26 06:12:15;;;;;;;;;;;12.50;99.90;;;;;;5091009;28;19929;-71
2022/04/26 06:14:41;;;;;;;;;;;12.50;99.90;;;;;;5072858;28;20348;-72
2022/04/26 06:17:06;;;;;;;;;;;12.60;99.90;;;;;;5090843;28;20280;-72
2022/04/26 06:19:32;;;;;;;;;;;12.70;99.90;;;;;;5072884;28;19912;-72
2022/04/26 06:21:57;;;;;;;;;;;12.80;99.90;;;;;;5091161;28;19926;-72
2022/04/26 06:24:23;;;;;;;;;;;12.80;99.90;;;;;;5090706;28;20203;-72
2022/04/26 06:26:49;;;;;;;;;;;12.90;99.90;;;;;;5091109;28;20003;-72
2022/04/26 06:29:14;;;;;;;;;;;12.80;99.90;;;;;;5090921;28;19943;-72
2022/04/26 06:31:40;;;;;;;;;;;13.00;99.90;;;;;;5090972;28;19924;-72
2022/04/26 06:34:06;;;;;;;;;;;13.10;99.90;;;;;;5092310;28;19916;-72
2022/04/26 06:36:31;;;;;;;;;;;13.20;99.90;;;;;;5094604;28;20437;-72
2022/04/26 06:38:57;;;;;;;;;;;13.40;99.90;;;;;;5094290;28;19916;-73
2022/04/26 06:41:22;;;;;;;;;;;13.70;99.90;;;;;;5076182;28;19920;-72
2022/04/26 06:43:48;;;;;;;;;;;13.70;99.90;;;;;;5075949;28;19908;-73
2022/04/26 06:46:13;;;;;;;;;;;13.80;99.90;;;;;;5094266;28;20011;-71
2022/04/26 06:48:39;;;;;;;;;;;13.90;99.90;;;;;;5075887;28;19958;-72
2022/04/26 06:51:04;;;;;;;;;;;14.10;99.90;;;;;;5075974;28;19916;-72
2022/04/26 06:53:30;;;;;;;;;;;14.30;99.90;;;;;;5094096;28;19919;-71
2022/04/26 06:55:55;;;;;;;;;;;14.20;99.90;;;;;;5076107;28;19916;-73
2022/04/26 06:58:21;;;;;;;;;;;14.20;99.90;;;;;;5094169;28;20014;-72
2022/04/26 07:00:47;;;;;;;;;;;14.40;99.90;;;;;;5075561;28;20359;-72
2022/04/26 07:03:13;;;;;;;;;;;14.50;99.90;;;;;;5094150;28;20279;-71
2022/04/26 07:05:39;;;;;;;;;;;14.60;99.90;;;;;;5093597;28;20054;-71
2022/04/26 07:08:05;;;;;;;;;;;14.80;99.90;;;;;;5094362;28;20010;-71
2022/04/26 07:10:30;;;;;;;;;;;15.00;99.90;;;;;;5093642;28;20076;-72
2022/04/26 07:12:56;;;;;;;;;;;15.10;99.90;;;;;;5093571;28;20390;-72
2022/04/26 07:15:21;;;;;;;;;;;15.20;99.90;;;;;;5075326;28;19915;-72
2022/04/26 07:17:47;;;;;;;;;;;15.40;99.90;;;;;;5093638;28;19908;-72
2022/04/26 07:20:12;;;;;;;;;;;15.40;99.90;;;;;;5075315;28;19935;-71
2022/04/26 07:22:38;;;;;;;;;;;15.30;99.90;;;;;;5075327;28;20379;-72
2022/04/26 07:25:05;;;;;;;;;;;15.20;99.90;;;;;;5075171;28;19955;-72
2022/04/26 07:27:31;;;;;;;;;;;15.10;99.90;;;;;;5093566;28;19924;-72
2022/04/26 07:29:57;;;;;;;;;;;15.20;99.90;;;;;;5093369;28;20280;-72
2022/04/26 07:35:09;;;;;;;;;;;15.40;99.90;;;;;;5093167;28;20288;-72
2022/04/26 07:37:35;;;;;;;;;;;15.40;99.90;;;;;;5074994;28;19958;-72
2022/04/26 07:40:00;;;;;;;;;;;15.40;99.90;;;;;;5092945;28;19916;-71
2022/04/26 07:42:26;;;;;;;;;;;15.60;99.90;;;;;;5093497;28;20011;-72
2022/04/26 07:44:51;;;;;;;;;;;15.70;99.90;;;;;;5092615;28;19970;-71
2022/04/26 07:47:17;;;;;;;;;;;15.70;99.90;;;;;;5093205;28;19923;-72
2022/04/26 07:49:42;;;;;;;;;;;15.90;99.90;;;;;;5093071;28;19909;-72
2022/04/26 07:52:08;;;;;;;;;;;16.00;99.90;;;;;;5093333;28;20090;-72
2022/04/26 07:54:34;;;;;;;;;;;16.20;99.90;;;;;;5092804;28;20364;-73
2022/04/26 07:57:00;;;;;;;;;;;16.10;99.90;;;;;;5092505;28;19921;-73
2022/04/26 07:59:28;;;;;;;;;;;16.00;99.90;;;;;;5092467;28;19912;-72
2022/04/26 08:01:54;;;;;;;;;;;16.00;99.90;;;;;;5093059;28;20380;-72
2022/04/26 08:04:19;;;;;;;;;;;16.00;99.90;;;;;;5092247;28;19959;-72
2022/04/26 08:06:45;;;;;;;;;;;15.90;99.90;;;;;;5074296;28;20287;-72
2022/04/26 08:09:10;;;;;;;;;;;15.80;99.90;;;;;;5092705;28;19911;-72
2022/04/26 08:11:36;;;;;;;;;;;15.70;99.90;;;;;;5092105;28;19920;-72
2022/04/26 08:14:01;;;;;;;;;;;15.60;99.90;;;;;;5092442;28;19982;-72
2022/04/26 08:16:27;;;;;;;;;;;15.50;99.90;;;;;;5092608;28;19917;-72
2022/04/26 08:18:52;;;;;;;;;;;15.40;99.90;;;;;;5092294;28;20457;-73
2022/04/26 08:21:18;;;;;;;;;;;15.30;99.90;;;;;;5092222;28;20446;-72
2022/04/26 08:29:15;;;;;;;;;;;15.20;99.90;;;;;;5092141;28;20086;-72
2022/04/26 08:31:41;;;;;;;;;;;15.20;99.90;;;;;;5073872;28;20407;-73
2022/04/26 08:34:06;;;;;;;;;;;15.30;99.90;;;;;;5091952;28;19979;-73
2022/04/26 08:36:32;;;;;;;;;;;15.30;99.90;;;;;;5073649;28;19920;-73
2022/04/26 08:38:58;;;;;;;;;;;15.40;99.90;;;;;;5092071;28;19912;-73
2022/04/26 08:41:24;;;;;;;;;;;15.40;99.90;;;;;;5092102;28;19931;-72
2022/04/26 08:43:49;;;;;;;;;;;15.30;99.90;;;;;;5092002;28;20345;-72
2022/04/26 08:46:15;;;;;;;;;;;15.20;99.90;;;;;;5091817;28;19916;-73
2022/04/26 08:51:24;;;;;;;;;;;15.10;99.90;;;;;;5092054;28;20048;-72
2022/04/26 08:53:50;;;;;;;;;;;15.30;99.90;;;;;;5091789;28;19908;-72
2022/04/26 08:56:16;;;;;;;;;;;15.50;99.90;;;;;;5072980;28;19916;-73
2022/04/26 08:58:42;;;;;;;;;;;15.80;99.90;;;;;;5090715;28;19912;-72
2022/04/26 09:01:08;;;;;;;;;;;15.90;99.90;;;;;;5091451;28;19916;-71
2022/04/26 09:03:34;;;;;;;;;;;15.90;99.90;;;;;;5091492;28;19909;-72
2022/04/26 09:06:04;;;;;;;;;;;15.80;99.90;;;;;;5091527;28;19916;-72
2022/04/26 09:08:29;;;;;;;;;;;15.70;99.90;;;;;;5091560;28;19911;-72
2022/04/26 09:10:55;;;;;;;;;;;15.50;99.90;;;;;;5073105;28;19924;-73
2022/04/26 09:13:23;;;;;;;;;;;15.40;99.90;;;;;;5072935;28;20364;-72
2022/04/26 09:15:54;;;;;;;;;;;15.10;99.90;;;;;;5091514;28;19920;-73
2022/04/26 09:18:22;;;;;;;;;;;15.00;99.90;;;;;;5091356;28;20276;-72
2022/04/26 09:20:49;;;;;;;;;;;14.90;99.90;;;;;;5091331;28;19939;-73
2022/04/26 09:23:16;;;;;;;;;;;15.00;99.90;;;;;;5073059;28;19908;-73
2022/04/26 09:25:42;;;;;;;;;;;15.00;99.90;;;;;;5091325;28;19923;-72
2022/04/26 09:28:08;;;;;;;;;;;15.00;99.90;;;;;;5091319;28;19950;-72
2022/04/26 09:30:34;;;;;;;;;;;15.00;99.90;;;;;;5091508;28;19978;-73
2022/04/26 09:33:00;;;;;;;;;;;15.00;99.90;;;;;;5091332;28;20280;-73
2022/04/26 09:35:31;;;;;;;;;;;14.80;99.90;;;;;;5073108;28;19923;-73
2022/04/26 09:37:57;;;;;;;;;;;14.80;99.90;;;;;;5091057;28;19912;-73
2022/04/26 09:40:26;;;;;;;;;;;14.80;99.90;;;;;;5091344;28;20366;-73
2022/04/26 09:42:52;;;;;;;;;;;14.70;99.90;;;;;;5090928;28;20485;-74
2022/04/26 09:45:17;;;;;;;;;;;14.80;99.90;;;;;;5091030;28;19956;-72
2022/04/26 09:47:43;;;;;;;;;;;14.90;99.90;;;;;;5072637;28;20359;-73
2022/04/26 09:50:13;;;;;;;;;;;15.10;99.90;;;;;;5090738;28;19933;-73
2022/04/26 09:52:39;;;;;;;;;;;14.90;99.90;;;;;;5072330;28;19912;-73
2022/04/26 09:55:07;;;;;;;;;;;14.90;99.90;;;;;;5090918;28;19986;-73
2022/04/26 09:57:33;;;;;;;;;;;15.00;99.90;;;;;;5072733;28;19912;-72
2022/04/26 09:59:59;;;;;;;;;;;15.20;99.90;;;;;;5090985;28;19920;-72
2022/04/26 10:02:29;;;;;;;;;;;15.60;99.90;;;;;;5072834;28;20379;-72
2022/04/26 10:04:55;;;;;;;;;;;16.00;99.90;;;;;;5090754;28;19908;-72
2022/04/26 10:07:23;;;;;;;;;;;16.30;99.90;;;;;;5090808;28;19986;-72
2022/04/26 10:09:49;;;;;;;;;;;16.70;99.90;;;;;;5093690;28;20279;-72
2022/04/26 10:12:14;;;;;;;;;;;16.90;99.90;;;;;;5094703;28;19927;-71
2022/04/26 10:14:40;;;;;;;;;;;17.20;99.90;;;;;;5094821;28;19912;-72
2022/04/26 10:17:07;;;;;;;;;;;17.60;99.90;;;;;;5095465;28;20538;-72
2022/04/26 10:19:40;;;;;;;;;;;18.10;99.90;;;;;;5094718;28;19962;-72
2022/04/26 10:22:08;;;;;;;;;;;18.60;99.90;;;;;;5094876;28;20279;-73
2022/04/26 10:24:34;;;;;;;;;;;19.10;99.90;;;;;;5094733;28;19986;-72
2022/04/26 10:27:18;;;;;;;;;;;19.50;99.90;;;;;;5094804;28;19923;-72
2022/04/26 10:29:44;;;;;;;;;;;19.60;99.90;;;;;;5094629;28;19908;-73
2022/04/26 10:32:11;;;;;;;;;;;19.40;99.90;;;;;;5094695;28;19935;-72
2022/04/26 10:34:36;;;;;;;;;;;19.20;99.90;;;;;;5094208;28;19908;-71
2022/04/26 10:37:22;;;;;;;;;;;19.40;99.90;;;;;;5076216;28;20007;-72
2022/04/26 10:40:01;;;;;;;;;;;19.60;99.90;;;;;;5094177;28;19947;-71
2022/04/26 10:42:30;;;;;;;;;;;19.30;99.90;;;;;;5094065;28;19959;-72
2022/04/26 10:45:05;;;;;;;;;;;18.90;99.90;;;;;;5094254;28;19994;-72
2022/04/26 10:47:30;;;;;;;;;;;18.70;99.90;;;;;;5094206;28;20376;-72
2022/04/26 10:49:58;;;;;;;;;;;18.30;99.90;;;;;;5076061;28;19909;-72
2022/04/26 10:52:24;;;;;;;;;;;18.00;99.90;;;;;;5094469;28;19924;-72
2022/04/26 10:54:58;;;;;;;;;;;17.80;99.90;;;;;;5094327;28;19908;-71
2022/04/26 10:57:29;;;;;;;;;;;18.10;99.90;;;;;;5094460;28;19923;-72
2022/04/26 10:59:56;;;;;;;;;;;18.30;99.90;;;;;;5075652;28;19947;-72
2022/04/26 11:02:23;;;;;;;;;;;18.10;99.90;;;;;;5094147;28;19963;-74
2022/04/26 11:05:01;;;;;;;;;;;17.80;99.90;;;;;;5094048;28;20245;-72
2022/04/26 11:07:29;;;;;;;;;;;17.50;99.90;;;;;;5094298;28;19970;-72
2022/04/26 11:09:58;;;;;;;;;;;17.30;99.90;;;;;;5093870;28;20354;-73
2022/04/26 11:12:25;;;;;;;;;;;17.00;99.90;;;;;;5093588;28;19935;-72
2022/04/26 11:14:51;;;;;;;;;;;16.80;99.90;;;;;;5093799;28;19908;-73
2022/04/26 11:17:18;;;;;;;;;;;16.60;99.90;;;;;;5094107;28;19917;-73
2022/04/26 11:19:47;;;;;;;;;;;16.30;99.90;;;;;;5075054;28;20379;-73
2022/04/26 11:22:13;;;;;;;;;;;16.50;99.90;;;;;;5074986;28;19925;-72
2022/04/26 11:30:08;;;;;;;;;;;16.80;99.90;;;;;;5093779;28;20004;-73
2022/04/26 11:32:34;;;;;;;;;;;16.60;99.90;;;;;;5093418;28;19942;-73
2022/04/26 11:35:00;;;;;;;;;;;16.50;99.90;;;;;;5093663;28;19914;-73
2022/04/26 11:37:25;;;;;;;;;;;16.40;99.90;;;;;;5093959;28;20011;-73
2022/04/26 11:39:51;;;;;;;;;;;16.30;99.90;;;;;;5075218;28;19908;-72
2022/04/26 11:42:16;;;;;;;;;;;16.30;99.90;;;;;;5093646;28;19917;-72
2022/04/26 11:45:01;;;;;;;;;;;16.20;99.90;;;;;;5093273;28;19959;-73
2022/04/26 11:47:39;;;;;;;;;;;16.20;99.90;;;;;;5075204;28;19916;-72
2022/04/26 11:50:08;;;;;;;;;;;16.20;99.90;;;;;;5093128;28;19912;-72
2022/04/26 11:52:34;;;;;;;;;;;16.30;99.90;;;;;;5093317;28;20462;-73
2022/04/26 11:54:59;;;;;;;;;;;16.50;99.90;;;;;;5092793;28;19908;-73
2022/04/26 11:57:25;;;;;;;;;;;16.50;99.90;;;;;;5093185;28;20351;-72
2022/04/26 11:59:50;;;;;;;;;;;16.60;99.90;;;;;;5092876;28;20360;-73
2022/04/26 12:02:16;;;;;;;;;;;16.70;99.90;;;;;;5092666;28;19916;-73
2022/04/26 12:04:41;;;;;;;;;;;16.80;99.90;;;;;;5092691;28;19908;-72
2022/04/26 12:07:07;;;;;;;;;;;16.50;99.90;;;;;;5074342;28;19916;-72
2022/04/26 12:09:33;;;;;;;;;;;16.50;99.90;;;;;;5092484;28;19912;-72
2022/04/26 12:11:59;;;;;;;;;;;16.70;99.90;;;;;;5092426;28;19931;-72
2022/04/26 12:14:24;;;;;;;;;;;16.80;99.90;;;;;;5074283;28;20338;-73
2022/04/26 12:16:57;;;;;;;;;;;16.80;99.90;;;;;;5092888;28;19962;-73
2022/04/26 12:19:33;;;;;;;;;;;16.60;99.90;;;;;;5092592;28;19912;-72
2022/04/26 12:21:59;;;;;;;;;;;16.80;99.90;;;;;;5092777;28;20302;-73
2022/04/26 12:24:29;;;;;;;;;;;17.00;99.90;;;;;;5092267;28;19934;-73
2022/04/26 12:26:55;;;;;;;;;;;17.10;99.90;;;;;;5074339;28;19947;-72
2022/04/26 12:29:22;;;;;;;;;;;17.10;99.90;;;;;;5092389;28;19915;-73
2022/04/26 12:31:48;;;;;;;;;;;17.00;99.90;;;;;;5092044;28;19932;-73
2022/04/26 12:34:17;;;;;;;;;;;16.90;99.90;;;;;;5092171;28;19911;-73
2022/04/26 12:36:52;;;;;;;;;;;16.90;99.90;;;;;;5092509;28;20287;-73
2022/04/26 12:39:18;;;;;;;;;;;16.90;99.90;;;;;;5073994;28;19957;-73
2022/04/26 12:41:50;;;;;;;;;;;16.90;99.90;;;;;;5092542;28;20018;-73
2022/04/26 12:44:16;;;;;;;;;;;16.90;99.90;;;;;;5073573;28;19908;-72
2022/04/26 12:46:45;;;;;;;;;;;17.10;99.90;;;;;;5073955;28;20389;-72
2022/04/26 12:51:57;;;;;;;;;;;17.40;99.90;;;;;;5092515;28;20018;-72
2022/04/26 12:54:22;;;;;;;;;;;17.50;99.90;;;;;;5092045;28;19977;-72
2022/04/26 12:57:01;;;;;;;;;;;17.40;99.90;;;;;;5092266;28;19920;-72
2022/04/26 12:59:34;;;;;;;;;;;17.40;99.90;;;;;;5073624;28;19908;-72
2022/04/26 13:02:00;;;;;;;;;;;17.50;99.90;;;;;;5092226;28;19916;-72
2022/04/26 13:04:26;;;;;;;;;;;17.20;99.90;;;;;;5091856;28;19908;-72
2022/04/26 13:06:53;;;;;;;;;;;17.10;99.90;;;;;;5092134;28;19946;-73
2022/04/26 13:09:18;;;;;;;;;;;16.80;99.90;;;;;;5091623;28;19923;-72
2022/04/26 13:11:44;;;;;;;;;;;16.60;99.90;;;;;;5091599;28;19920;-73
2022/04/26 13:14:10;;;;;;;;;;;16.40;99.90;;;;;;5091897;28;20348;-73
2022/04/26 13:16:35;;;;;;;;;;;16.10;99.90;;;;;;5091865;28;19923;-73
2022/04/26 13:19:01;;;;;;;;;;;16.00;99.90;;;;;;5091521;28;20402;-73
2022/04/26 13:21:26;;;;;;;;;;;15.90;99.90;;;;;;5073628;28;20319;-73
2022/04/26 13:23:54;;;;;;;;;;;15.90;99.90;;;;;;5091631;28;19935;-73
2022/04/26 13:26:19;;;;;;;;;;;16.00;99.90;;;;;;5091645;28;19920;-73
2022/04/26 13:28:44;;;;;;;;;;;16.10;99.90;;;;;;5091526;28;20389;-72
2022/04/26 13:31:10;;;;;;;;;;;16.00;99.90;;;;;;5091325;28;19939;-73
2022/04/26 13:33:35;;;;;;;;;;;15.90;99.90;;;;;;5091434;28;19958;-72
2022/04/26 13:36:01;;;;;;;;;;;15.90;99.90;;;;;;5073230;28;20367;-73
2022/04/26 13:38:27;;;;;;;;;;;15.90;99.90;;;;;;5091615;28;20011;-73
2022/04/26 13:40:53;;;;;;;;;;;15.80;99.90;;;;;;5091358;28;19931;-73
2022/04/26 13:43:21;;;;;;;;;;;15.80;99.90;;;;;;5091775;28;19947;-73
2022/04/26 13:45:46;;;;;;;;;;;15.80;99.90;;;;;;5077388;28;19920;-73
2022/04/26 13:48:12;;;;;;;;;;;15.90;99.90;;;;;;5095866;28;19915;-73
2022/04/26 13:50:38;;;;;;;;;;;15.90;99.90;;;;;;5095430;28;19916;-73
2022/04/26 13:53:03;;;;;;;;;;;16.00;99.90;;;;;;5095614;28;19912;-72
2022/04/26 13:55:30;;;;;;;;;;;16.00;99.90;;;;;;5095217;28;19917;-73
2022/04/26 13:57:55;;;;;;;;;;;15.90;99.90;;;;;;5095230;28;19909;-73
2022/04/26 14:00:21;;;;;;;;;;;15.80;99.90;;;;;;5095436;28;20249;-73
2022/04/26 14:02:48;;;;;;;;;;;15.70;99.90;;;;;;5095096;28;20409;-73
2022/04/26 14:05:14;;;;;;;;;;;15.70;99.90;;;;;;5095020;28;19993;-72
2022/04/26 14:07:40;;;;;;;;;;;15.70;99.90;;;;;;5094975;28;19909;-72
2022/04/26 14:10:06;;;;;;;;;;;15.70;99.90;;;;;;5094722;28;19912;-72
2022/04/26 14:12:33;;;;;;;;;;;15.70;99.90;;;;;;5076609;28;19920;-72
2022/04/26 14:23:11;;;;;;;;;;;15.40;99.90;;;;;;5095101;28;19930;-72
2022/04/26 14:25:38;;;;;;;;;;;15.30;99.90;;;;;;5094614;28;19916;-72
2022/04/26 14:28:03;;;;;;;;;;;15.30;99.90;;;;;;5094465;28;20402;-72
2022/04/26 14:30:29;;;;;;;;;;;15.30;99.90;;;;;;5094358;28;19916;-72
2022/04/26 14:32:55;;;;;;;;;;;15.20;99.90;;;;;;5076238;28;19917;-73
2022/04/26 14:35:20;;;;;;;;;;;15.10;99.90;;;;;;5094540;28;19912;-72
2022/04/26 14:37:46;;;;;;;;;;;15.10;99.90;;;;;;5094534;28;19908;-72
2022/04/26 14:40:12;;;;;;;;;;;14.90;99.90;;;;;;5094466;28;19936;-73
2022/04/26 14:42:38;;;;;;;;;;;14.70;99.90;;;;;;5094446;28;19951;-72
2022/04/26 14:45:04;;;;;;;;;;;14.60;99.90;;;;;;5076266;28;20330;-73
2022/04/26 14:47:30;;;;;;;;;;;14.40;99.90;;;;;;5094369;28;19938;-72
2022/04/26 14:49:59;;;;;;;;;;;14.20;99.90;;;;;;5094199;28;19909;-73
2022/04/26 14:52:25;;;;;;;;;;;15.10;99.90;;;;;;5075971;28;19986;-72
2022/04/26 14:54:51;;;;;;;;;;;14.00;99.90;;;;;;5093036;28;20353;-73
2022/04/26 14:57:17;;;;;;;;;;;13.90;99.90;;;;;;5093968;28;20344;-73
2022/04/26 14:59:46;;;;;;;;;;;13.80;99.90;;;;;;5093862;28;20141;-73
2022/04/26 15:02:13;;;;;;;;;;;13.70;99.90;;;;;;5075668;28;19916;-73
2022/04/26 15:04:39;;;;;;;;;;;13.60;99.90;;;;;;5093821;28;20376;-73
2022/04/26 15:07:05;;;;;;;;;;;13.50;99.90;;;;;;5093585;28;20003;-72
2022/04/26 15:09:43;;;;;;;;;;;13.40;99.90;;;;;;5075651;28;19961;-72
2022/04/26 15:17:42;;;;;;;;;;;13.40;99.90;;;;;;5094127;28;20023;-73
2022/04/26 15:20:08;;;;;;;;;;;13.40;99.90;;;;;;5093802;28;19908;-73
2022/04/26 15:22:36;;;;;;;;;;;13.50;99.90;;;;;;5126050;27;20370;-73
2022/04/26 15:25:04;;;;;;;;;;;13.60;99.90;;;;;;5132597;27;19953;-72
2022/04/26 15:27:30;;;;;;;;;;;13.50;99.90;;;;;;5102226;27;19955;-73
2022/04/26 15:29:55;;;;;;;;;;;13.60;99.90;;;;;;5111469;27;20331;-72
2022/04/26 15:32:23;;;;;;;;;;;13.50;99.90;;;;;;5095660;28;20409;-73
2022/04/26 15:34:49;;;;;;;;;;;13.40;99.90;;;;;;5114179;27;20010;-73
2022/04/26 15:37:15;;;;;;;;;;;13.40;99.90;;;;;;5112419;27;20003;-73
2022/04/26 15:39:42;;;;;;;;;;;13.40;99.90;;;;;;5112647;27;20352;-73
2022/04/26 15:42:08;;;;;;;;;;;13.40;99.90;;;;;;5113742;28;20364;-74
2022/04/26 15:44:33;;;;;;;;;;;13.40;99.90;;;;;;5130568;27;19960;-73
2022/04/26 15:46:59;;;;;;;;;;;13.30;99.90;;;;;;5116168;27;20358;-73
2022/04/26 15:49:25;;;;;;;;;;;13.20;99.90;;;;;;5135112;27;19912;-74
2022/04/26 15:51:52;;;;;;;;;;;13.20;99.90;;;;;;5134849;27;19923;-72
2022/04/26 15:54:18;;;;;;;;;;;13.20;99.90;;;;;;5134560;27;19911;-72
2022/04/26 15:56:44;;;;;;;;;;;13.10;99.90;;;;;;5116068;27;20006;-72
2022/04/26 15:59:09;;;;;;;;;;;13.00;99.90;;;;;;5134337;27;19915;-64
2022/04/26 16:01:36;;;;;;;;;;;13.00;99.90;;;;;;5115241;27;20194;-70
2022/04/26 16:04:01;;;;;;;;;;;13.10;99.90;;;;;;5134314;27;20255;-72
2022/04/26 16:06:27;;;;;;;;;;;13.00;99.90;;;;;;5133475;27;19927;-73
2022/04/26 16:20:28;;;;;;;;;;;13.00;99.90;;;;;;5133592;27;20355;-72
2022/04/26 16:22:35;;;;;;;;;;;12.60;99.90;;;;;;5131553;27;20324;-72
2022/04/26 16:25:00;;;;;;;;;;;12.70;99.90;;;;;;5112929;27;20157;-73
2022/04/26 16:27:27;;;;;;;;;;;12.50;99.90;;;;;;5131743;27;19915;-72
2022/04/26 16:29:52;;;;;;;;;;;12.50;99.90;;;;;;5131496;27;19956;-72
2022/04/26 16:32:18;;;;;;;;;;;12.50;99.90;;;;;;5131480;27;20419;-73
2022/04/26 16:34:44;;;;;;;;;;;12.50;99.90;;;;;;5132921;27;20002;-71
2022/04/26 16:37:09;;;;;;;;;;;12.40;99.90;;;;;;5133432;27;20014;-72
2022/04/26 16:39:35;;;;;;;;;;;12.50;99.90;;;;;;5133336;27;20263;-71
2022/04/26 16:42:00;;;;;;;;;;;12.30;99.90;;;;;;5133541;27;19964;-71
2022/04/26 16:44:26;;;;;;;;;;;12.20;99.90;;;;;;5132927;27;19938;-71
2022/04/26 16:46:51;;;;;;;;;;;12.20;99.90;;;;;;5114617;27;19915;-71
2022/04/26 16:49:17;;;;;;;;;;;12.20;99.90;;;;;;5132998;27;20419;-72
2022/04/26 16:51:42;;;;;;;;;;;12.10;99.90;;;;;;5133150;27;19942;-72
2022/04/26 16:54:08;;;;;;;;;;;12.10;99.90;;;;;;5133213;27;20238;-72
2022/04/26 16:56:35;;;;;;;;;;;12.10;99.90;;;;;;5133340;27;20274;-73
2022/04/26 16:59:00;;;;;;;;;;;12.00;99.90;;;;;;5133118;27;20317;-71
2022/04/26 17:01:26;;;;;;;;;;;12.10;99.90;;;;;;5133155;27;19916;-71
2022/04/26 17:03:51;;;;;;;;;;;12.10;99.90;;;;;;5132911;27;20252;-71
2022/04/26 17:06:18;;;;;;;;;;;12.10;99.90;;;;;;5132770;27;19986;-72
2022/04/26 17:08:44;;;;;;;;;;;12.10;99.90;;;;;;5132492;27;19943;-71
2022/04/26 17:13:54;;;;;;;;;;;12.00;99.90;;;;;;5132350;27;20023;-71
2022/04/26 17:16:21;;;;;;;;;;;11.90;99.90;;;;;;5132673;27;19920;-72
2022/04/26 17:18:46;;;;;;;;;;;11.80;99.90;;;;;;5113011;27;19908;-72
2022/04/26 17:21:12;;;;;;;;;;;11.80;99.90;;;;;;5113971;27;19922;-71
2022/04/26 17:23:39;;;;;;;;;;;11.80;99.90;;;;;;5132549;27;19908;-72
2022/04/26 17:26:04;;;;;;;;;;;11.70;99.90;;;;;;5132347;27;19965;-72
2022/04/26 17:28:30;;;;;;;;;;;11.70;99.90;;;;;;5132205;27;19950;-72
2022/04/26 17:30:56;;;;;;;;;;;11.70;99.90;;;;;;5132097;27;19964;-72
2022/04/26 17:33:21;;;;;;;;;;;11.60;99.90;;;;;;5132040;28;20030;-72
2022/04/26 17:35:47;;;;;;;;;;;11.70;99.90;;;;;;5132129;28;19958;-72
2022/04/26 17:38:13;;;;;;;;;;;11.60;99.90;;;;;;5131980;28;20359;-72
2022/04/26 17:40:39;;;;;;;;;;;12.20;99.90;;;;;;5132128;28;19919;-72
2022/04/26 17:43:04;;;;;;;;;;;11.60;99.90;;;;;;5131904;28;19934;-72
2022/04/26 17:45:33;;;;;;;;;;;11.60;99.90;;;;;;5131976;28;19912;-73
2022/04/26 17:47:58;;;;;;;;;;;11.60;99.90;;;;;;5132282;28;20045;-72
2022/04/26 17:50:24;;;;;;;;;;;11.60;99.90;;;;;;5131922;28;19983;-72
2022/04/26 17:58:18;;;;;;;;;;;11.60;99.90;;;;;;5132332;28;19964;-72
2022/04/26 18:00:44;;;;;;;;;;;11.50;99.90;;;;;;5113410;28;20227;-72
2022/04/26 18:03:09;;;;;;;;;;;11.60;99.90;;;;;;5131982;28;20015;-72
2022/04/26 18:05:35;;;;;;;;;;;11.50;99.90;;;;;;5113298;28;19994;-72
2022/04/26 18:08:00;;;;;;;;;;;11.40;99.90;;;;;;5131893;28;19917;-72
2022/04/26 18:10:27;;;;;;;;;;;11.30;99.90;;;;;;5113260;28;19911;-72
2022/04/26 18:12:52;;;;;;;;;;;11.40;99.90;;;;;;5131622;28;20387;-72
2022/04/26 18:15:18;;;;;;;;;;;11.30;99.90;;;;;;5131800;28;19914;-71
2022/04/26 18:17:44;;;;;;;;;;;11.20;99.90;;;;;;5131691;28;20356;-72
2022/04/26 18:20:09;;;;;;;;;;;11.20;99.90;;;;;;5113159;28;19959;-72
2022/04/26 18:22:35;;;;;;;;;;;11.20;99.90;;;;;;5131664;28;19912;-72
2022/04/26 18:25:02;;;;;;;;;;;11.10;99.90;;;;;;5112775;28;20231;-72
2022/04/26 18:27:27;;;;;;;;;;;11.10;99.90;;;;;;5132073;28;19938;-72
2022/04/26 18:29:53;;;;;;;;;;;11.10;99.90;;;;;;5132810;27;20026;-72
2022/04/26 18:32:18;;;;;;;;;;;11.20;99.90;;;;;;5117003;27;19923;-73
2022/04/26 18:34:44;;;;;;;;;;;11.10;99.90;;;;;;5135306;27;19912;-72
2022/04/26 18:37:09;;;;;;;;;;;11.10;99.90;;;;;;5116916;27;20335;-72
2022/04/26 18:39:35;;;;;;;;;;;11.10;99.90;;;;;;5135178;27;19932;-71
2022/04/26 18:42:00;;;;;;;;;;;11.10;99.90;;;;;;5135395;27;19916;-71